Time;durP1;ratioP1;P1;durP2;ratioP2;P2;SDS_P1;SDS_P2;PMS_P1;PMS_P2;Temp;Humidity;BMP_temperature;BMP_pressure;BME280_temperature;BME280_humidity;BME280_pressure;Samples;Min_cycle;Max_cycle;Signal;HPM_P1;HPM_P2
2022/11/15 00:01:38;;;;;;;1.42;1.33;;;6.30;99.90;;;;;;4397660;32;20070;-76
2022/11/15 00:04:04;;;;;;;1.08;0.82;;;6.20;99.90;;;;;;4382713;32;20109;-75
2022/11/15 00:06:30;;;;;;;2.90;1.35;;;6.10;99.90;;;;;;4381566;32;20452;-76
2022/11/15 00:08:58;;;;;;;3.75;1.73;;;6.10;99.90;;;;;;4397902;32;20105;-77
2022/11/15 00:11:23;;;;;;;9.68;2.67;;;6.10;99.90;;;;;;4398863;32;20127;-77
2022/11/15 00:13:49;;;;;;;7.75;1.37;;;6.10;99.90;;;;;;4396533;32;20088;-76
2022/11/15 00:16:14;;;;;;;5.90;1.73;;;6.10;99.90;;;;;;4397579;32;20074;-77
2022/11/15 00:18:40;;;;;;;17.23;1.42;;;6.10;99.90;;;;;;4397212;32;20087;-76
2022/11/15 00:21:09;;;;;;;2.90;1.05;;;6.00;99.90;;;;;;4395588;32;20089;-76
2022/11/15 00:23:35;;;;;;;1.65;1.48;;;6.00;99.90;;;;;;4394773;32;20105;-77
2022/11/15 00:26:00;;;;;;;1.45;1.25;;;6.00;99.90;;;;;;4396535;32;20081;-77
2022/11/15 00:28:26;;;;;;;1.27;1.15;;;6.00;99.90;;;;;;4393854;32;20526;-76
2022/11/15 00:30:52;;;;;;;3.37;2.25;;;6.00;99.90;;;;;;4392804;32;20077;-76
2022/11/15 00:33:17;;;;;;;3.45;1.60;;;6.00;99.90;;;;;;4387655;32;20493;-78
2022/11/15 00:35:43;;;;;;;1.67;1.20;;;6.00;99.90;;;;;;4378100;32;20094;-74
2022/11/15 00:38:08;;;;;;;9.10;2.22;;;6.00;99.90;;;;;;4390870;32;20162;-78
2022/11/15 00:40:34;;;;;;;1.40;1.02;;;5.90;99.90;;;;;;4394926;32;20089;-77
2022/11/15 00:42:59;;;;;;;1.23;1.12;;;6.00;99.90;;;;;;4395503;32;20097;-77
2022/11/15 00:45:25;;;;;;;1.58;1.42;;;5.90;99.90;;;;;;4397036;32;20065;-78
2022/11/15 00:47:52;;;;;;;1.50;1.25;;;5.90;99.90;;;;;;4397418;32;20089;-76
2022/11/15 00:50:18;;;;;;;1.37;1.27;;;6.00;99.90;;;;;;4395576;32;20485;-77
2022/11/15 00:52:44;;;;;;;1.50;1.10;;;6.00;99.90;;;;;;4396124;32;20101;-77
2022/11/15 00:55:18;;;;;;;0.75;0.75;;;6.00;99.90;;;;;;4397360;32;20183;-77
2022/11/15 00:57:43;;;;;;;4.60;2.17;;;6.00;99.90;;;;;;4398640;32;20141;-76
2022/11/15 01:00:09;;;;;;;0.90;0.90;;;6.00;99.90;;;;;;4397193;32;20442;-77
2022/11/15 01:02:35;;;;;;;1.50;1.40;;;5.90;99.90;;;;;;4396122;32;20296;-76
2022/11/15 01:05:00;;;;;;;6.93;1.10;;;5.80;99.90;;;;;;4376844;32;20153;-75
2022/11/15 01:07:26;;;;;;;2.28;1.62;;;5.80;99.90;;;;;;4386547;32;20098;-77
2022/11/15 01:09:51;;;;;;;1.30;1.20;;;5.90;99.90;;;;;;4395040;32;20081;-76
2022/11/15 01:12:17;;;;;;;7.25;2.08;;;5.80;99.90;;;;;;4394831;32;20074;-73
2022/11/15 01:14:42;;;;;;;1.33;1.15;;;5.80;99.90;;;;;;4394945;32;20097;-78
2022/11/15 01:17:08;;;;;;;0.98;0.98;;;5.80;99.90;;;;;;4398444;32;20058;-78
2022/11/15 01:19:33;;;;;;;0.73;0.73;;;5.80;99.90;;;;;;4396218;32;20109;-76
2022/11/15 01:21:59;;;;;;;0.80;0.80;;;5.80;99.90;;;;;;4396182;32;20348;-77
2022/11/15 01:24:24;;;;;;;0.60;0.60;;;5.80;99.90;;;;;;4395651;32;20109;-78
2022/11/15 01:26:50;;;;;;;1.17;1.02;;;5.80;99.90;;;;;;4398429;32;20545;-75
2022/11/15 01:29:15;;;;;;;1.37;1.27;;;5.80;99.90;;;;;;4393670;32;20089;-77
2022/11/15 01:31:41;;;;;;;0.70;0.70;;;5.80;99.90;;;;;;4398335;32;20085;-77
2022/11/15 01:34:06;;;;;;;1.73;1.40;;;5.70;99.90;;;;;;4381352;32;20552;-75
2022/11/15 01:36:32;;;;;;;5.43;2.35;;;5.80;99.90;;;;;;4382059;32;20193;-76
2022/11/15 01:38:58;;;;;;;2.78;1.37;;;5.70;99.90;;;;;;4398897;32;20078;-77
2022/11/15 01:41:27;;;;;;;2.75;2.03;;;5.70;99.90;;;;;;4396856;32;20109;-78
2022/11/15 01:43:55;;;;;;;2.00;1.45;;;5.70;99.90;;;;;;4399903;32;20078;-78
2022/11/15 01:46:24;;;;;;;3.45;1.10;;;5.80;99.90;;;;;;4398202;32;20097;-78
2022/11/15 01:48:53;;;;;;;0.73;0.73;;;5.80;99.90;;;;;;4396460;32;20097;-77
2022/11/15 01:51:24;;;;;;;1.37;1.25;;;5.90;99.90;;;;;;4397192;32;20161;-78
2022/11/15 01:53:50;;;;;;;;;;;5.80;99.90;;;;;;4396299;32;20101;-77
2022/11/15 01:56:20;;;;;;;1.33;1.23;;;5.80;99.90;;;;;;4397326;32;19957;-76
2022/11/15 01:58:46;;;;;;;1.23;1.12;;;5.80;99.90;;;;;;4396948;32;20098;-77
2022/11/15 02:01:13;;;;;;;16.75;1.40;;;5.80;99.90;;;;;;4397666;32;20077;-77
2022/11/15 02:03:47;;;;;;;7.03;2.15;;;5.80;99.90;;;;;;4386460;32;20070;-75
2022/11/15 02:06:14;;;;;;;1.35;1.23;;;5.90;99.90;;;;;;4380634;32;20078;-75
2022/11/15 02:08:39;;;;;;;4.37;1.17;;;5.80;99.90;;;;;;4397238;32;20116;-77
2022/11/15 02:11:08;;;;;;;2.15;1.55;;;5.80;99.90;;;;;;4398331;32;20094;-76
2022/11/15 02:13:34;;;;;;;0.98;0.93;;;5.80;99.90;;;;;;4399346;32;20235;-77
2022/11/15 02:16:39;;;;;;;1.02;1.02;;;5.80;99.90;;;;;;4396792;32;20223;-78
2022/11/15 02:19:14;;;;;;;0.70;0.70;;;5.80;99.90;;;;;;4390967;32;20114;-78
2022/11/15 02:22:19;;;;;;;0.65;0.65;;;5.90;99.90;;;;;;4399786;32;20069;-78
2022/11/15 02:25:15;;;;;;;2.00;0.88;;;5.80;99.90;;;;;;4379225;32;20096;-77
2022/11/15 02:28:12;;;;;;;4.00;1.27;;;5.70;99.90;;;;;;4387335;32;20196;-79
2022/11/15 02:30:45;;;;;;;10.77;0.93;;;5.80;99.90;;;;;;4386313;32;20118;-78
2022/11/15 02:33:23;;;;;;;3.87;1.65;;;5.80;99.90;;;;;;4391074;32;20113;-75
2022/11/15 02:35:55;;;;;;;3.17;1.48;;;5.70;99.90;;;;;;4380988;32;20085;-75
2022/11/15 02:38:45;;;;;;;2.22;0.90;;;5.70;99.90;;;;;;4393040;32;20533;-77
2022/11/15 02:41:16;;;;;;;1.92;1.08;;;5.70;99.90;;;;;;4385882;32;20070;-77
2022/11/15 02:43:57;;;;;;;2.58;1.48;;;5.70;99.90;;;;;;4396659;32;20086;-78
2022/11/15 02:47:16;;;;;;;1.60;1.50;;;5.50;99.90;;;;;;4396585;32;20194;-77
2022/11/15 02:49:33;;;;;;;0.75;0.75;;;5.50;99.90;;;;;;4385116;32;20099;-77
2022/11/15 02:51:58;;;;;;;3.62;1.27;;;5.60;99.90;;;;;;4400169;32;20077;-78
2022/11/15 02:54:29;;;;;;;1.10;0.85;;;5.60;99.90;;;;;;4397330;32;20073;-78
2022/11/15 02:56:58;;;;;;;2.97;1.08;;;5.60;99.90;;;;;;4395356;32;20544;-76
2022/11/15 02:59:51;;;;;;;6.32;1.75;;;5.60;99.90;;;;;;4396743;32;20070;-75
2022/11/15 03:02:36;;;;;;;1.73;1.42;;;5.70;99.90;;;;;;4389194;32;20065;-76
2022/11/15 03:05:29;;;;;;;1.92;1.42;;;5.60;99.90;;;;;;4378498;32;20906;-74
2022/11/15 03:08:19;;;;;;;2.47;2.03;;;5.60;99.90;;;;;;4379370;32;20569;-77
2022/11/15 03:11:09;;;;;;;7.20;1.25;;;5.50;99.90;;;;;;4385833;32;20205;-74
2022/11/15 03:13:58;;;;;;;1.50;1.30;;;5.60;99.90;;;;;;4387029;32;20062;-76
2022/11/15 03:16:36;;;;;;;0.77;0.77;;;5.60;99.90;;;;;;4386236;32;20262;-76
2022/11/15 03:19:13;;;;;;;1.10;1.10;;;5.70;99.90;;;;;;4397797;32;20254;-75
2022/11/15 03:21:40;;;;;;;1.70;1.30;;;5.70;99.90;;;;;;4397182;32;20537;-78
2022/11/15 03:24:08;;;;;;;4.72;1.42;;;5.70;99.90;;;;;;4397427;32;20426;-75
2022/11/15 03:26:36;;;;;;;1.48;1.23;;;5.70;99.90;;;;;;4398628;32;20142;-77
2022/11/15 03:29:25;;;;;;;3.55;1.23;;;5.70;99.90;;;;;;4397695;32;20463;-77
2022/11/15 03:31:56;;;;;;;1.10;0.90;;;5.60;99.90;;;;;;4384149;32;20089;-77
2022/11/15 03:34:32;;;;;;;1.20;0.98;;;5.70;99.90;;;;;;4381553;32;20066;-76
2022/11/15 03:36:58;;;;;;;7.55;1.83;;;5.70;99.90;;;;;;4380714;32;20730;-77
2022/11/15 03:39:25;;;;;;;1.73;1.45;;;5.60;99.90;;;;;;4396812;32;20086;-76
2022/11/15 03:42:18;;;;;;;0.80;0.80;;;5.50;99.90;;;;;;4398238;32;20062;-76
2022/11/15 03:44:52;;;;;;;1.27;0.93;;;5.50;99.90;;;;;;4382529;32;20110;-77
2022/11/15 03:47:30;;;;;;;1.67;1.58;;;5.50;99.90;;;;;;4396912;32;20588;-76
2022/11/15 03:50:02;;;;;;;1.70;1.20;;;5.50;99.90;;;;;;4394784;32;20078;-77
2022/11/15 03:52:33;;;;;;;1.35;1.05;;;5.40;99.90;;;;;;4398392;32;20109;-76
2022/11/15 03:55:01;;;;;;;3.00;1.67;;;5.40;99.90;;;;;;4397994;32;20073;-78
2022/11/15 03:57:26;;;;;;;1.20;0.80;;;5.40;99.90;;;;;;4395586;32;20085;-76
2022/11/15 03:59:52;;;;;;;0.70;0.70;;;5.30;99.90;;;;;;4396122;32;20514;-76
2022/11/15 04:02:17;;;;;;;6.72;1.37;;;5.30;99.90;;;;;;4394646;32;20411;-76
2022/11/15 04:04:43;;;;;;;2.95;1.80;;;5.30;99.90;;;;;;4379903;32;20558;-75
2022/11/15 04:07:08;;;;;;;1.62;1.27;;;5.40;99.90;;;;;;4383689;32;20217;-76
2022/11/15 04:10:01;;;;;;;1.17;1.08;;;5.30;99.90;;;;;;4398335;32;20095;-77
2022/11/15 04:12:30;;;;;;;1.02;1.00;;;5.30;99.90;;;;;;4386970;32;20487;-77
2022/11/15 04:15:12;;;;;;;2.78;1.30;;;5.40;99.90;;;;;;4394223;32;20102;-77
2022/11/15 04:17:56;;;;;;;5.70;2.10;;;5.40;99.90;;;;;;4396967;32;20098;-76
2022/11/15 04:24:12;;;;;;;1.48;1.37;;;5.40;99.90;;;;;;4387826;32;20087;-77
2022/11/15 04:26:01;;;;;;;1.85;1.25;;;5.40;99.90;;;;;;4391048;32;20537;-77
2022/11/15 04:28:28;;;;;;;1.90;0.80;;;5.50;99.90;;;;;;4397934;32;20086;-75
2022/11/15 04:30:54;;;;;;;2.03;1.60;;;5.50;99.90;;;;;;4396592;32;20066;-76
2022/11/15 04:33:19;;;;;;;2.95;1.80;;;5.50;99.90;;;;;;4389166;32;20608;-77
2022/11/15 04:37:11;;;;;;;5.28;1.52;;;5.50;99.90;;;;;;4381718;32;20084;-74
2022/11/15 04:38:31;;;;;;;1.33;1.23;;;5.50;99.90;;;;;;4387739;32;20200;-78
2022/11/15 04:40:56;;;;;;;3.35;1.65;;;5.40;99.90;;;;;;4395485;32;20105;-76
2022/11/15 04:43:21;;;;;;;2.67;1.33;;;5.40;99.90;;;;;;4394934;32;20107;-78
2022/11/15 04:45:47;;;;;;;1.17;1.08;;;5.40;99.90;;;;;;4398578;32;20451;-76
2022/11/15 04:48:12;;;;;;;1.67;1.27;;;5.40;99.90;;;;;;4395913;32;20082;-75
2022/11/15 04:50:38;;;;;;;2.17;1.15;;;5.50;99.90;;;;;;4396148;32;20082;-78
2022/11/15 04:53:03;;;;;;;1.65;1.30;;;5.50;99.90;;;;;;4398607;32;20467;-78
2022/11/15 04:55:29;;;;;;;1.65;1.42;;;5.40;99.90;;;;;;4397721;32;20081;-77
2022/11/15 04:58:00;;;;;;;2.17;1.48;;;5.40;99.90;;;;;;4396103;32;20094;-77
2022/11/15 05:00:27;;;;;;;1.70;1.42;;;5.40;99.90;;;;;;4397512;32;20093;-76
2022/11/15 05:04:25;;;;;;;1.23;1.05;;;5.30;99.90;;;;;;4392836;32;20601;-76
2022/11/15 05:05:38;;;;;;;1.15;0.90;;;5.30;99.90;;;;;;4376138;32;20065;-75
2022/11/15 05:08:04;;;;;;;1.30;1.02;;;5.40;99.90;;;;;;4392617;32;20514;-77
2022/11/15 05:10:29;;;;;;;2.72;1.75;;;5.40;99.90;;;;;;4394816;32;20066;-78
2022/11/15 05:12:55;;;;;;;2.35;1.15;;;5.40;99.90;;;;;;4397273;32;20145;-76
2022/11/15 05:15:21;;;;;;;1.85;1.23;;;5.40;99.90;;;;;;4401538;32;20150;-78
2022/11/15 05:17:46;;;;;;;0.70;0.70;;;5.50;99.90;;;;;;4401332;32;20145;-78
2022/11/15 05:20:12;;;;;;;2.83;1.52;;;5.50;99.90;;;;;;4396992;32;20137;-77
2022/11/15 05:22:38;;;;;;;2.67;1.27;;;5.50;99.90;;;;;;4369593;32;20764;-75
2022/11/15 05:25:04;;;;;;;0.50;0.50;;;5.40;99.90;;;;;;4364323;32;20177;-76
2022/11/15 05:27:29;;;;;;;1.10;1.10;;;5.30;99.90;;;;;;4361177;32;20765;-75
2022/11/15 05:29:55;;;;;;;3.75;1.85;;;5.30;99.90;;;;;;4363277;32;20149;-74
2022/11/15 05:32:20;;;;;;;13.68;1.23;;;5.30;99.90;;;;;;4360195;32;20096;-75
2022/11/15 05:34:46;;;;;;;2.15;1.60;;;5.20;99.90;;;;;;4347130;32;20137;-74
2022/11/15 05:37:13;;;;;;;2.85;1.80;;;5.20;99.90;;;;;;4367704;32;20070;-79
2022/11/15 05:39:38;;;;;;;3.80;1.30;;;5.20;99.90;;;;;;4397436;32;20090;-78
2022/11/15 05:42:10;;;;;;;2.17;1.02;;;5.20;99.90;;;;;;4395839;32;20083;-78
2022/11/15 05:44:38;;;;;;;2.00;1.12;;;5.20;99.90;;;;;;4398107;32;20086;-76
2022/11/15 05:47:06;;;;;;;2.15;1.58;;;5.30;99.90;;;;;;4399027;32;20650;-77
2022/11/15 05:49:34;;;;;;;2.28;1.35;;;5.30;99.90;;;;;;4397530;32;20174;-76
2022/11/15 05:52:02;;;;;;;2.78;1.30;;;5.30;99.90;;;;;;4385710;32;20144;-75
2022/11/15 05:54:27;;;;;;;2.28;1.60;;;5.30;99.90;;;;;;4356972;32;20315;-75
2022/11/15 05:56:54;;;;;;;0.95;0.95;;;5.20;99.90;;;;;;4372716;32;20086;-76
2022/11/15 05:59:20;;;;;;;3.47;2.10;;;5.20;99.90;;;;;;4397645;32;20570;-77
2022/11/15 06:01:45;;;;;;;4.60;1.40;;;5.20;99.90;;;;;;4388565;32;20077;-74
2022/11/15 06:04:11;;;;;;;1.55;1.12;;;5.20;99.90;;;;;;4356590;32;20093;-74
2022/11/15 06:06:36;;;;;;;1.87;1.25;;;5.30;99.90;;;;;;4354166;32;20069;-74
2022/11/15 06:09:02;;;;;;;0.93;0.93;;;5.20;99.90;;;;;;4352322;32;20168;-74
2022/11/15 06:11:27;;;;;;;1.42;1.35;;;5.20;99.90;;;;;;4356274;32;20377;-75
2022/11/15 06:13:53;;;;;;;4.22;1.42;;;5.20;99.90;;;;;;4346999;32;20090;-74
2022/11/15 06:16:18;;;;;;;0.75;0.62;;;5.10;99.90;;;;;;4352289;32;20153;-74
2022/11/15 06:18:44;;;;;;;1.73;0.82;;;5.10;99.90;;;;;;4313862;32;20584;-73
2022/11/15 06:21:09;;;;;;;3.10;1.77;;;5.10;99.90;;;;;;4318839;32;20234;-74
2022/11/15 06:23:35;;;;;;;1.10;0.95;;;5.10;99.90;;;;;;4295504;32;20664;-75
2022/11/15 06:26:02;;;;;;;1.17;1.08;;;5.10;99.90;;;;;;4304853;32;20597;-74
2022/11/15 06:28:30;;;;;;;1.15;0.98;;;5.10;99.90;;;;;;4322863;32;20073;-74
2022/11/15 06:30:56;;;;;;;4.28;1.50;;;5.20;99.90;;;;;;4290706;32;20106;-75
2022/11/15 06:33:21;;;;;;;3.60;1.23;;;5.30;99.90;;;;;;4308913;32;20405;-75
2022/11/15 06:35:47;;;;;;;1.77;1.35;;;5.30;99.90;;;;;;4317690;32;20225;-76
2022/11/15 06:38:12;;;;;;;1.40;1.27;;;5.30;99.90;;;;;;4324285;32;20102;-74
2022/11/15 06:40:39;;;;;;;1.60;1.05;;;5.30;99.90;;;;;;4322422;32;20097;-76
2022/11/15 06:43:05;;;;;;;2.12;0.88;;;5.30;99.90;;;;;;4333185;32;20935;-76
2022/11/15 06:45:31;;;;;;;2.17;1.73;;;5.20;99.90;;;;;;4346838;32;20122;-74
2022/11/15 06:47:57;;;;;;;3.35;1.25;;;5.20;99.90;;;;;;4345739;32;20299;-75
2022/11/15 06:50:23;;;;;;;2.28;1.40;;;5.30;99.90;;;;;;4339367;32;20590;-76
2022/11/15 06:52:48;;;;;;;2.30;1.35;;;5.30;99.90;;;;;;4342681;32;20791;-76
2022/11/15 06:55:14;;;;;;;1.25;1.15;;;5.40;99.90;;;;;;4357006;32;20106;-76
2022/11/15 06:57:48;;;;;;;3.37;1.10;;;5.40;99.90;;;;;;4348778;32;20149;-76
2022/11/15 07:00:15;;;;;;;6.12;2.25;;;5.40;99.90;;;;;;4331446;32;21100;-75
2022/11/15 07:02:40;;;;;;;1.98;1.75;;;5.40;99.90;;;;;;4325458;32;20381;-75
2022/11/15 07:05:07;;;;;;;5.65;1.52;;;5.40;99.90;;;;;;4337122;32;20149;-76
2022/11/15 07:07:32;;;;;;;1.58;1.15;;;5.50;99.90;;;;;;4363237;32;20086;-74
2022/11/15 07:09:58;;;;;;;2.62;1.30;;;5.40;99.90;;;;;;4363013;32;20593;-75
2022/11/15 07:12:23;;;;;;;1.40;1.30;;;5.50;99.90;;;;;;4366804;32;20448;-74
2022/11/15 07:14:49;;;;;;;0.75;0.75;;;5.50;99.90;;;;;;4368441;32;20082;-76
2022/11/15 07:17:14;;;;;;;1.80;1.30;;;5.60;99.90;;;;;;4362618;32;20391;-76
2022/11/15 07:19:40;;;;;;;3.15;1.70;;;5.70;99.90;;;;;;4340620;32;20608;-76
2022/11/15 07:22:05;;;;;;;6.53;2.00;;;5.80;99.90;;;;;;4352710;32;21670;-76
2022/11/15 07:24:31;;;;;;;0.93;0.90;;;5.80;99.90;;;;;;4352920;32;20082;-77
2022/11/15 07:26:56;;;;;;;2.30;1.67;;;5.90;99.90;;;;;;4356465;32;20130;-76
2022/11/15 07:29:22;;;;;;;1.02;0.98;;;6.00;99.90;;;;;;4359456;32;20205;-76
2022/11/15 07:31:48;;;;;;;8.77;1.92;;;6.10;99.90;;;;;;4337246;32;139910;-76
2022/11/15 07:34:14;;;;;;;4.65;1.42;;;6.20;99.90;;;;;;4328473;32;21245;-76
2022/11/15 07:36:39;;;;;;;0.75;0.70;;;6.10;99.90;;;;;;4342872;32;20258;-76
2022/11/15 07:39:05;;;;;;;2.62;1.27;;;6.30;99.90;;;;;;4355271;32;20648;-76
2022/11/15 07:41:31;;;;;;;1.45;1.35;;;6.30;99.90;;;;;;4362739;32;20122;-79
2022/11/15 07:43:57;;;;;;;1.50;1.40;;;6.40;99.90;;;;;;4365169;32;20593;-77
2022/11/15 07:46:22;;;;;;;1.23;1.00;;;6.40;99.90;;;;;;4363672;32;20781;-78
2022/11/15 07:48:48;;;;;;;4.55;1.12;;;6.50;99.90;;;;;;4352931;32;20266;-77
2022/11/15 07:51:14;;;;;;;2.35;1.25;;;6.70;99.90;;;;;;4348238;32;20585;-77
2022/11/15 07:53:41;;;;;;;0.93;0.93;;;6.70;99.90;;;;;;4357849;32;20326;-76
2022/11/15 07:56:07;;;;;;;5.10;1.23;;;6.80;99.90;;;;;;4368214;32;20070;-76
2022/11/15 07:58:33;;;;;;;2.22;1.35;;;6.80;99.90;;;;;;4366354;32;20065;-76
2022/11/15 08:01:01;;;;;;;4.07;1.45;;;6.80;99.90;;;;;;4348034;32;20316;-76
2022/11/15 08:03:27;;;;;;;1.00;1.00;;;6.90;99.90;;;;;;4331903;32;20158;-76
2022/11/15 08:05:52;;;;;;;1.55;1.00;;;6.90;99.90;;;;;;4342279;32;20442;-76
2022/11/15 08:08:18;;;;;;;5.90;2.10;;;7.00;99.90;;;;;;4343093;32;20516;-75
2022/11/15 08:10:44;;;;;;;1.23;1.12;;;7.00;99.90;;;;;;4354329;32;20210;-76
2022/11/15 08:13:11;;;;;;;2.92;1.25;;;7.10;99.90;;;;;;4362607;32;20874;-75
2022/11/15 08:15:37;;;;;;;1.50;1.37;;;7.10;99.90;;;;;;4367552;32;20533;-76
2022/11/15 08:18:05;;;;;;;2.20;1.10;;;7.10;99.90;;;;;;4362406;32;20128;-76
2022/11/15 08:20:31;;;;;;;2.62;1.87;;;7.20;99.90;;;;;;4342832;32;20113;-75
2022/11/15 08:22:58;;;;;;;7.10;2.00;;;7.30;99.90;;;;;;4360774;32;20097;-76
2022/11/15 08:25:26;;;;;;;2.62;2.15;;;7.40;99.90;;;;;;4354516;32;20086;-75
2022/11/15 08:27:54;;;;;;;1.62;1.45;;;7.50;99.90;;;;;;4354565;32;20367;-75
2022/11/15 08:30:20;;;;;;;3.75;1.45;;;7.60;99.90;;;;;;4348446;32;21601;-76
2022/11/15 08:32:47;;;;;;;8.95;4.75;;;7.70;99.90;;;;;;4340930;32;20296;-75
2022/11/15 08:35:12;;;;;;;6.53;1.55;;;7.80;99.90;;;;;;4336266;32;20173;-77
2022/11/15 08:37:38;;;;;;;2.20;1.55;;;7.90;99.90;;;;;;4351433;32;20097;-75
2022/11/15 08:40:05;;;;;;;1.55;1.20;;;8.00;99.90;;;;;;4365791;32;20245;-77
2022/11/15 08:42:30;;;;;;;3.72;1.95;;;8.10;99.90;;;;;;4363414;32;20233;-77
2022/11/15 08:44:55;;;;;;;1.52;1.40;;;8.30;99.90;;;;;;4357896;32;20089;-76
2022/11/15 08:47:21;;;;;;;4.35;1.75;;;8.40;99.90;;;;;;4348428;32;20408;-76
2022/11/15 08:49:46;;;;;;;2.08;1.08;;;8.50;99.90;;;;;;4332900;32;21328;-76
2022/11/15 08:52:14;;;;;;;4.45;2.03;;;8.70;99.90;;;;;;4335628;32;20272;-74
2022/11/15 08:54:39;;;;;;;1.98;1.20;;;8.70;99.90;;;;;;4345224;32;20093;-77
2022/11/15 08:57:05;;;;;;;5.57;1.85;;;8.90;99.90;;;;;;4344436;32;20767;-76
2022/11/15 08:59:30;;;;;;;2.05;1.50;;;9.00;99.90;;;;;;4341495;32;20105;-75
2022/11/15 09:01:55;;;;;;;2.30;1.20;;;9.10;99.90;;;;;;4351109;32;20575;-76
2022/11/15 09:04:21;;;;;;;3.50;1.35;;;9.20;99.90;;;;;;4342751;32;20396;-77
2022/11/15 09:06:47;;;;;;;0.82;0.65;;;9.30;99.90;;;;;;4345886;32;20446;-77
2022/11/15 09:09:12;;;;;;;2.22;1.70;;;9.40;99.90;;;;;;4358469;32;20299;-76
2022/11/15 09:11:38;;;;;;;6.40;1.37;;;9.50;99.90;;;;;;4363877;32;20487;-75
2022/11/15 09:14:03;;;;;;;3.20;1.48;;;9.70;99.90;;;;;;4358459;32;20511;-76
2022/11/15 09:16:31;;;;;;;2.78;1.08;;;9.70;99.90;;;;;;4369305;32;20164;-76
2022/11/15 09:18:56;;;;;;;2.45;1.05;;;9.80;99.90;;;;;;4361035;32;20243;-77
2022/11/15 09:21:22;;;;;;;2.58;1.48;;;9.80;99.90;;;;;;4356430;32;20115;-78
2022/11/15 09:23:51;;;;;;;5.72;2.37;;;9.80;99.90;;;;;;4356307;32;20089;-76
2022/11/15 09:26:18;;;;;;;1.02;0.95;;;9.90;99.90;;;;;;4347803;32;21066;-77
2022/11/15 09:28:43;;;;;;;2.20;1.45;;;10.00;99.90;;;;;;4351445;32;20269;-76
2022/11/15 09:31:09;;;;;;;3.15;1.08;;;10.10;99.90;;;;;;4345588;32;20098;-76
2022/11/15 09:33:35;;;;;;;1.25;1.15;;;10.10;99.90;;;;;;4342183;32;20383;-76
2022/11/15 09:36:03;;;;;;;3.00;1.25;;;10.20;99.90;;;;;;4341119;32;20890;-76
2022/11/15 09:38:28;;;;;;;1.70;1.37;;;10.40;99.90;;;;;;4348602;32;20154;-76
2022/11/15 09:41:14;;;;;;;2.00;0.90;;;10.40;99.90;;;;;;4354368;32;20109;-76
2022/11/15 09:43:47;;;;;;;5.32;0.88;;;10.50;99.90;;;;;;4369245;32;20139;-77
2022/11/15 09:46:37;;;;;;;1.45;1.00;;;10.50;99.90;;;;;;4360022;32;20110;-78
2022/11/15 09:49:04;;;;;;;2.35;1.48;;;10.70;99.90;;;;;;4354350;32;20096;-77
2022/11/15 09:51:35;;;;;;;3.03;1.55;;;10.80;99.90;;;;;;4350670;32;20247;-75
2022/11/15 09:54:11;;;;;;;1.92;1.05;;;10.90;99.90;;;;;;4347218;32;20290;-78
2022/11/15 09:56:40;;;;;;;9.07;1.35;;;10.90;99.90;;;;;;4345227;32;20685;-76
2022/11/15 09:59:16;;;;;;;1.58;1.02;;;10.90;99.90;;;;;;4346270;32;20117;-76
2022/11/15 10:01:50;;;;;;;4.47;1.27;;;11.00;99.90;;;;;;4352717;32;20192;-75
2022/11/15 10:04:16;;;;;;;10.15;0.98;;;11.00;99.90;;;;;;4342408;32;20350;-74
2022/11/15 10:06:49;;;;;;;1.23;1.05;;;11.00;99.90;;;;;;4343601;32;20373;-74
2022/11/15 10:09:23;;;;;;;10.25;1.10;;;11.10;99.90;;;;;;4359659;32;20078;-75
2022/11/15 10:11:49;;;;;;;0.93;0.93;;;11.20;99.90;;;;;;4363825;32;20233;-77
2022/11/15 10:14:20;;;;;;;0.68;0.68;;;11.30;99.90;;;;;;4357631;32;20201;-77
2022/11/15 10:17:15;;;;;;;1.48;1.20;;;11.40;99.90;;;;;;4363188;32;20110;-77
2022/11/15 10:19:52;;;;;;;1.73;1.15;;;11.60;99.90;;;;;;4340693;32;20299;-77
2022/11/15 10:22:26;;;;;;;3.40;1.02;;;11.60;99.90;;;;;;4347706;32;20239;-76
2022/11/15 10:25:18;;;;;;;1.92;1.02;;;11.60;99.90;;;;;;4330253;32;21036;-78
2022/11/15 10:27:51;;;;;;;1.12;0.90;;;11.60;99.90;;;;;;4330243;32;20223;-74
2022/11/15 10:30:18;;;;;;;0.88;0.88;;;11.60;99.90;;;;;;4333530;32;20114;-75
2022/11/15 10:32:45;;;;;;;0.80;0.80;;;11.60;99.90;;;;;;4334111;32;20987;-76
2022/11/15 10:35:28;;;;;;;3.33;0.88;;;11.60;99.90;;;;;;4326147;32;20219;-74
2022/11/15 10:38:11;;;;;;;2.03;1.20;;;11.70;99.90;;;;;;4336510;32;22145;-74
2022/11/15 10:40:38;;;;;;;7.25;0.70;;;11.80;99.90;;;;;;4348654;32;20101;-74
2022/11/15 10:43:14;;;;;;;1.70;0.70;;;11.90;99.90;;;;;;4338057;32;20638;-75
2022/11/15 10:45:39;;;;;;;0.95;0.95;;;11.80;99.90;;;;;;4349333;32;21753;-76
2022/11/15 10:48:15;;;;;;;0.90;0.88;;;11.90;99.90;;;;;;4347392;32;20719;-76
2022/11/15 10:50:44;;;;;;;2.05;1.27;;;12.00;99.90;;;;;;4323661;32;21055;-76
2022/11/15 10:53:20;;;;;;;1.12;1.00;;;12.00;99.90;;;;;;4332903;32;20647;-75
2022/11/15 10:55:48;;;;;;;2.87;0.73;;;12.20;99.90;;;;;;4329383;32;21180;-76
2022/11/15 10:58:36;;;;;;;3.35;1.30;;;12.40;99.90;;;;;;4340634;32;20098;-76
2022/11/15 11:01:23;;;;;;;2.28;1.90;;;12.40;99.90;;;;;;4325726;32;20368;-76
2022/11/15 11:04:05;;;;;;;1.25;1.15;;;12.60;99.90;;;;;;4330825;32;20432;-76
2022/11/15 11:07:01;;;;;;;4.07;1.20;;;12.80;99.90;;;;;;4336656;32;20223;-76
2022/11/15 11:09:32;;;;;;;1.40;1.30;;;12.80;99.90;;;;;;4349702;32;20674;-76
2022/11/15 11:11:58;;;;;;;0.80;0.80;;;12.90;99.90;;;;;;4363117;32;21400;-76
2022/11/15 11:14:27;;;;;;;2.55;1.50;;;13.10;99.90;;;;;;4348443;32;20081;-76
2022/11/15 11:16:58;;;;;;;0.88;0.88;;;13.20;99.90;;;;;;4342451;32;20200;-76
2022/11/15 11:19:31;;;;;;;;;;;13.50;99.90;;;;;;4343486;32;21130;-77
2022/11/15 11:22:22;;;;;;;3.05;1.70;;;13.20;99.90;;;;;;4354944;32;20593;-76
2022/11/15 11:25:27;;;;;;;1.15;1.02;;;13.50;99.90;;;;;;4336653;32;20125;-74
2022/11/15 11:28:33;;;;;;;0.70;0.70;;;13.70;99.90;;;;;;4350830;32;20097;-76
2022/11/15 11:31:14;;;;;;;2.08;0.65;;;13.90;99.90;;;;;;4350336;32;20085;-76
2022/11/15 11:34:17;;;;;;;2.33;1.45;;;14.20;99.90;;;;;;4361324;32;20260;-77
2022/11/15 11:36:55;;;;;;;1.00;0.95;;;14.50;99.90;;;;;;4350117;32;20234;-77
2022/11/15 11:39:44;;;;;;;1.77;1.33;;;14.70;99.90;;;;;;4366614;32;20214;-76
2022/11/15 11:42:26;;;;;;;1.10;0.93;;;14.60;99.90;;;;;;4346315;32;20193;-76
2022/11/15 11:45:31;;;;;;;3.15;1.12;;;14.90;99.90;;;;;;4371097;32;20085;-77
2022/11/15 11:48:09;;;;;;;2.35;1.20;;;15.10;99.90;;;;;;4340337;32;20082;-75
2022/11/15 11:50:37;;;;;;;2.97;0.68;;;15.40;99.90;;;;;;4346424;32;21548;-76
2022/11/15 11:53:27;;;;;;;1.58;1.27;;;15.60;99.90;;;;;;4331884;32;21692;-78
2022/11/15 11:55:56;;;;;;;2.47;1.05;;;15.40;99.90;;;;;;4319309;32;20962;-75
2022/11/15 11:58:33;;;;;;;4.03;1.05;;;15.70;99.90;;;;;;4335557;32;20101;-74
2022/11/15 12:01:11;;;;;;;3.92;1.20;;;15.90;99.90;;;;;;4343921;32;20195;-73
2022/11/15 12:03:50;;;;;;;0.50;0.50;;;16.10;99.90;;;;;;4336835;32;20126;-75
2022/11/15 12:06:42;;;;;;;1.30;0.95;;;16.30;99.90;;;;;;4344733;32;20729;-73
2022/11/15 12:09:33;;;;;;;0.88;0.77;;;16.60;99.90;;;;;;4346485;32;20082;-73
2022/11/15 12:12:09;;;;;;;1.00;0.90;;;16.70;99.90;;;;;;4349707;32;20110;-74
2022/11/15 12:14:57;;;;;;;0.60;0.60;;;16.90;99.90;;;;;;4359342;32;21170;-73
2022/11/15 12:17:26;;;;;;;0.98;0.55;;;16.90;99.90;;;;;;4339768;32;21718;-74
2022/11/15 12:19:57;;;;;;;6.43;1.10;;;17.00;99.90;;;;;;4337796;32;21080;-74
2022/11/15 12:22:42;;;;;;;;;;;17.40;99.90;;;;;;4348451;32;20110;-74
2022/11/15 12:25:30;;;;;;;0.88;0.88;;;17.60;99.90;;;;;;4316899;32;20982;-73
2022/11/15 12:28:03;;;;;;;0.60;0.60;;;17.80;99.90;;;;;;4333122;32;20848;-74
2022/11/15 12:30:45;;;;;;;0.50;0.50;;;17.70;99.90;;;;;;4341815;32;20893;-74
2022/11/15 12:33:31;;;;;;;0.75;0.70;;;17.60;99.90;;;;;;4334927;32;20256;-73
2022/11/15 12:36:02;;;;;;;0.60;0.60;;;17.40;99.90;;;;;;4343337;32;20167;-74
2022/11/15 12:38:48;;;;;;;0.75;0.75;;;17.30;99.90;;;;;;4351170;32;20118;-73
2022/11/15 12:41:17;;;;;;;0.73;0.70;;;17.40;99.90;;;;;;4332939;32;20156;-74
2022/11/15 12:43:44;;;;;;;1.27;0.77;;;17.50;99.90;;;;;;4350827;32;20073;-73
2022/11/15 12:46:20;;;;;;;0.80;0.80;;;17.40;99.90;;;;;;4346156;32;20271;-74
2022/11/15 12:48:50;;;;;;;16.62;0.85;;;17.30;99.90;;;;;;4348307;32;20499;-74
2022/11/15 12:51:17;;;;;;;2.72;0.80;;;17.10;99.90;;;;;;4339028;32;20097;-74
2022/11/15 12:53:42;;;;;;;1.75;1.10;;;16.90;99.90;;;;;;4333085;32;20953;-74
2022/11/15 12:56:17;;;;;;;0.60;0.60;;;16.90;99.90;;;;;;4328968;32;20368;-74
2022/11/15 12:58:48;;;;;;;1.02;1.02;;;16.80;99.90;;;;;;4334795;32;20097;-74
2022/11/15 13:01:35;;;;;;;0.85;0.65;;;16.60;99.90;;;;;;4334762;32;20797;-74
2022/11/15 13:04:23;;;;;;;1.55;1.15;;;16.40;99.90;;;;;;4326910;32;20120;-73
2022/11/15 13:06:51;;;;;;;0.50;0.50;;;16.30;99.90;;;;;;4321409;32;20173;-73
2022/11/15 13:09:38;;;;;;;5.03;2.37;;;16.10;99.90;;;;;;4354418;32;21521;-74
2022/11/15 13:12:13;;;;;;;0.88;0.70;;;16.00;99.90;;;;;;4332785;32;20113;-74
2022/11/15 13:14:43;;;;;;;39.53;1.27;;;15.90;99.90;;;;;;4348928;32;20324;-75
2022/11/15 13:17:24;;;;;;;2.92;0.98;;;15.80;99.90;;;;;;4352972;32;20715;-74
2022/11/15 13:20:00;;;;;;;0.73;0.73;;;15.70;99.90;;;;;;4339523;32;20194;-74